Time;durP1;ratioP1;P1;durP2;ratioP2;P2;SDS_P1;SDS_P2;PMS_P1;PMS_P2;Temp;Humidity;BMP_temperature;BMP_pressure;BME280_temperature;BME280_humidity;BME280_pressure;Samples;Min_cycle;Max_cycle;Signal;HPM_P1;HPM_P2
2021/08/26 00:06:43;;;;;;;12.85;6.55;;;;;;;;;;4960019;28;20070;-78
2021/08/26 00:09:09;;;;;;;12.30;6.38;;;;;;;;;;4962344;28;20694;-78
2021/08/26 00:11:35;;;;;;;11.85;5.97;;;;;;;;;;4953005;28;20035;-78
2021/08/26 00:14:01;;;;;;;11.20;5.40;;;;;;;;;;4963655;28;20038;-77
2021/08/26 00:16:27;;;;;;;8.98;5.70;;;;;;;;;;4962456;28;20023;-77
2021/08/26 00:18:53;;;;;;;19.73;5.38;;;;;;;;;;4967252;28;20027;-78
2021/08/26 00:21:19;;;;;;;8.43;5.22;;;;;;;;;;4962297;28;20603;-78
2021/08/26 00:23:45;;;;;;;6.75;4.85;;;;;;;;;;4962920;28;20046;-78
2021/08/26 00:26:11;;;;;;;11.63;5.18;;;;;;;;;;4964781;28;20039;-78
2021/08/26 00:28:36;;;;;;;14.45;5.30;;;;;;;;;;4968416;28;20030;-78
2021/08/26 00:31:03;;;;;;;10.68;5.30;;;;;;;;;;4956865;28;20077;-78
2021/08/26 00:33:28;;;;;;;9.63;4.82;;;;;;;;;;4959568;28;20030;-78
2021/08/26 00:35:54;;;;;;;11.10;4.40;;;;;;;;;;4962175;28;20028;-78
2021/08/26 00:38:21;;;;;;;9.93;4.18;;;;;;;;;;4956100;28;20045;-78
2021/08/26 00:40:47;;;;;;;9.05;3.97;;;;;;;;;;4961169;28;20027;-78
2021/08/26 00:43:13;;;;;;;6.50;4.53;;;;;;;;;;4968288;28;20106;-77
2021/08/26 00:45:40;;;;;;;13.93;4.85;;;;;;;;;;4962710;28;20049;-78
2021/08/26 00:48:08;;;;;;;10.32;4.68;;;;;;;;;;4962817;28;20034;-78
2021/08/26 00:50:34;;;;;;;9.75;4.50;;;;;;;;;;4963358;28;20042;-77
2021/08/26 00:53:00;;;;;;;8.23;4.32;;;;;;;;;;4967408;28;20034;-78
2021/08/26 00:55:25;;;;;;;6.57;4.20;;;;;;;;;;4963761;28;20503;-78
2021/08/26 00:57:51;;;;;;;7.68;4.20;;;;;;;;;;4961788;28;20027;-78
2021/08/26 01:00:17;;;;;;;9.00;4.57;;;;;;;;;;4942676;28;20046;-77
2021/08/26 01:02:54;;;;;;;6.25;3.92;;;;;;;;;;4966326;28;20026;-78
2021/08/26 01:05:40;;;;;;;9.50;4.82;;;;;;;;;;4960392;28;20063;-78
2021/08/26 01:08:11;;;;;;;11.85;3.95;;;;;;;;;;4972729;28;20035;-78
2021/08/26 01:10:40;;;;;;;12.63;4.10;;;;;;;;;;4959612;28;20448;-78
2021/08/26 01:13:06;;;;;;;8.50;4.03;;;;;;;;;;4962960;28;20427;-78
2021/08/26 01:15:32;;;;;;;6.95;4.20;;;;;;;;;;4966013;28;20038;-79
2021/08/26 01:17:58;;;;;;;10.05;4.25;;;;;;;;;;4974172;28;20030;-79
2021/08/26 01:20:23;;;;;;;7.93;4.22;;;;;;;;;;4949220;28;20476;-78
2021/08/26 01:22:49;;;;;;;7.32;4.40;;;;;;;;;;4971054;28;20556;-78
2021/08/26 01:25:21;;;;;;;5.88;3.97;;;;;;;;;;4961152;28;20050;-78
2021/08/26 01:27:55;;;;;;;7.05;3.97;;;;;;;;;;4968677;28;20027;-78
2021/08/26 01:30:23;;;;;;;8.73;3.75;;;;;;;;;;4960843;28;20692;-77
2021/08/26 01:32:52;;;;;;;10.82;4.00;;;;;;;;;;4966206;28;20026;-78
2021/08/26 01:35:19;;;;;;;5.20;3.75;;;;;;;;;;4966507;28;20038;-77
2021/08/26 01:37:45;;;;;;;6.88;3.55;;;;;;;;;;4970108;28;20044;-77
2021/08/26 01:40:11;;;;;;;8.70;3.75;;;;;;;;;;4963900;28;20039;-78
2021/08/26 01:42:37;;;;;;;6.85;3.42;;;;;;;;;;4966006;28;20042;-78
2021/08/26 01:45:04;;;;;;;6.85;3.58;;;;;;;;;;4964336;28;20042;-77
2021/08/26 01:47:29;;;;;;;5.82;3.33;;;;;;;;;;4948835;28;20117;-78
2021/08/26 01:49:55;;;;;;;8.63;4.13;;;;;;;;;;4957018;28;20880;-77
2021/08/26 01:52:22;;;;;;;5.07;3.00;;;;;;;;;;4966653;28;20019;-78
2021/08/26 01:55:00;;;;;;;5.68;2.95;;;;;;;;;;4961041;28;20074;-78
2021/08/26 01:57:26;;;;;;;4.57;2.92;;;;;;;;;;4958956;28;20066;-78
2021/08/26 01:59:53;;;;;;;7.55;3.47;;;;;;;;;;4967687;28;20023;-78
2021/08/26 02:02:20;;;;;;;6.13;2.55;;;;;;;;;;4967819;28;20027;-78
2021/08/26 02:04:46;;;;;;;5.38;3.25;;;;;;;;;;4962803;28;20035;-78
2021/08/26 02:07:12;;;;;;;6.03;3.30;;;;;;;;;;4965843;28;20684;-78
2021/08/26 02:09:38;;;;;;;5.60;3.42;;;;;;;;;;4965173;28;20543;-78
2021/08/26 02:12:03;;;;;;;6.47;3.17;;;;;;;;;;4967716;28;20022;-77
2021/08/26 02:14:29;;;;;;;8.20;3.13;;;;;;;;;;4965842;28;20255;-78
2021/08/26 02:16:54;;;;;;;7.65;3.80;;;;;;;;;;4960771;28;20557;-78
2021/08/26 02:19:20;;;;;;;6.25;2.95;;;;;;;;;;4964685;28;20026;-78
2021/08/26 02:21:45;;;;;;;7.97;3.80;;;;;;;;;;4962750;28;20047;-77
2021/08/26 02:24:11;;;;;;;5.93;3.45;;;;;;;;;;4950899;28;20082;-78
2021/08/26 02:26:37;;;;;;;5.90;3.95;;;;;;;;;;4960791;28;20038;-78
2021/08/26 02:29:03;;;;;;;7.07;3.60;;;;;;;;;;4975939;28;20031;-78
2021/08/26 02:31:29;;;;;;;10.15;4.28;;;;;;;;;;4964343;28;20030;-78
2021/08/26 02:33:55;;;;;;;10.80;4.10;;;;;;;;;;4962509;28;20026;-78
2021/08/26 02:36:21;;;;;;;7.55;4.13;;;;;;;;;;4968795;28;20122;-78
2021/08/26 02:38:47;;;;;;;9.27;4.63;;;;;;;;;;4962262;28;20038;-78
2021/08/26 02:41:12;;;;;;;9.45;4.55;;;;;;;;;;4962899;28;20027;-78
2021/08/26 02:43:38;;;;;;;13.27;5.53;;;;;;;;;;4965206;28;20581;-79
2021/08/26 02:46:03;;;;;;;10.15;5.05;;;;;;;;;;4976375;28;20042;-79
2021/08/26 02:48:29;;;;;;;8.55;5.13;;;;;;;;;;4965182;28;20038;-78
2021/08/26 02:50:54;;;;;;;11.07;5.18;;;;;;;;;;4953186;28;20066;-78
2021/08/26 02:53:20;;;;;;;16.05;6.68;;;;;;;;;;4959280;28;20055;-78
2021/08/26 02:55:45;;;;;;;12.60;6.15;;;;;;;;;;4960983;28;20114;-78
2021/08/26 02:58:11;;;;;;;10.73;5.75;;;;;;;;;;4951774;28;20058;-77
2021/08/26 03:00:36;;;;;;;13.73;6.50;;;;;;;;;;4962790;28;20063;-78
2021/08/26 03:03:02;;;;;;;15.40;6.35;;;;;;;;;;4966373;28;20037;-78
2021/08/26 03:05:27;;;;;;;9.50;4.70;;;;;;;;;;4966428;28;20038;-78
2021/08/26 03:07:54;;;;;;;10.18;4.90;;;;;;;;;;4966602;28;20043;-78
2021/08/26 03:10:20;;;;;;;11.40;4.72;;;;;;;;;;4959876;28;20023;-78
2021/08/26 03:12:45;;;;;;;9.55;4.93;;;;;;;;;;4966624;28;20027;-78
2021/08/26 03:15:11;;;;;;;12.38;4.88;;;;;;;;;;4962120;28;20046;-77
2021/08/26 03:17:36;;;;;;;7.18;4.28;;;;;;;;;;4968912;28;20583;-78
2021/08/26 03:20:02;;;;;;;7.82;3.75;;;;;;;;;;4960552;28;20046;-77
2021/08/26 03:22:28;;;;;;;8.57;4.53;;;;;;;;;;4962980;28;20114;-78
2021/08/26 03:24:53;;;;;;;9.43;3.95;;;;;;;;;;4961669;28;20786;-77
2021/08/26 03:27:19;;;;;;;6.32;3.75;;;;;;;;;;4964419;28;20039;-78
2021/08/26 03:29:44;;;;;;;5.18;3.30;;;;;;;;;;4961730;28;20034;-78
2021/08/26 03:32:10;;;;;;;7.93;3.25;;;;;;;;;;4969495;28;20573;-78
2021/08/26 03:34:35;;;;;;;6.65;2.95;;;;;;;;;;4961028;28;20034;-77
2021/08/26 03:37:01;;;;;;;5.88;3.40;;;;;;;;;;4965118;28;20041;-78
2021/08/26 03:39:26;;;;;;;7.55;3.53;;;;;;;;;;4965814;28;20031;-78
2021/08/26 03:41:52;;;;;;;7.53;3.70;;;;;;;;;;4957048;28;20030;-78
2021/08/26 03:44:17;;;;;;;6.28;3.55;;;;;;;;;;4957032;28;20093;-78
2021/08/26 03:46:42;;;;;;;5.05;3.17;;;;;;;;;;4960709;28;20039;-78
2021/08/26 03:49:08;;;;;;;7.43;3.38;;;;;;;;;;4963242;28;20049;-78
2021/08/26 03:51:33;;;;;;;5.60;2.92;;;;;;;;;;4969522;28;20030;-77
2021/08/26 03:53:59;;;;;;;6.50;3.15;;;;;;;;;;4962510;28;20035;-78
2021/08/26 03:56:24;;;;;;;5.35;2.88;;;;;;;;;;4968375;28;20027;-78
2021/08/26 03:58:50;;;;;;;5.97;2.95;;;;;;;;;;4962143;28;20038;-78
2021/08/26 04:01:15;;;;;;;7.05;2.70;;;;;;;;;;4956153;28;20125;-78
2021/08/26 04:03:41;;;;;;;4.88;2.83;;;;;;;;;;4961006;28;20038;-77
2021/08/26 04:06:06;;;;;;;4.70;2.60;;;;;;;;;;4961995;28;20251;-78
2021/08/26 04:08:32;;;;;;;4.43;2.50;;;;;;;;;;4960001;28;20497;-78
2021/08/26 04:10:58;;;;;;;8.68;2.85;;;;;;;;;;4958097;28;20054;-78
2021/08/26 04:13:23;;;;;;;5.50;2.42;;;;;;;;;;4957846;28;20031;-79
2021/08/26 04:15:49;;;;;;;7.13;2.30;;;;;;;;;;4966113;28;20055;-78
2021/08/26 04:18:15;;;;;;;3.85;2.20;;;;;;;;;;4966664;28;20027;-78
2021/08/26 04:20:40;;;;;;;3.42;2.08;;;;;;;;;;4964553;28;20518;-78
2021/08/26 04:23:06;;;;;;;5.88;2.75;;;;;;;;;;4976079;28;20031;-78
2021/08/26 04:25:33;;;;;;;5.47;2.50;;;;;;;;;;4947756;28;20086;-78
2021/08/26 04:27:58;;;;;;;5.47;2.38;;;;;;;;;;4962129;28;20043;-78
2021/08/26 04:30:24;;;;;;;4.05;2.33;;;;;;;;;;4963219;28;20412;-78
2021/08/26 04:32:50;;;;;;;4.60;1.98;;;;;;;;;;4965587;28;20121;-78
2021/08/26 04:35:15;;;;;;;4.10;2.20;;;;;;;;;;4964768;28;20055;-78
2021/08/26 04:37:41;;;;;;;3.35;1.98;;;;;;;;;;4964027;28;20603;-78
2021/08/26 04:40:06;;;;;;;3.78;1.85;;;;;;;;;;4961542;28;20081;-78
2021/08/26 04:42:32;;;;;;;11.63;3.05;;;;;;;;;;4945046;28;20042;-78
2021/08/26 04:44:57;;;;;;;6.20;2.20;;;;;;;;;;4962006;28;20031;-78
2021/08/26 04:47:23;;;;;;;4.28;2.42;;;;;;;;;;4961803;28;20366;-77
2021/08/26 04:49:48;;;;;;;7.85;2.40;;;;;;;;;;4965601;28;20092;-78
2021/08/26 04:52:14;;;;;;;4.10;2.50;;;;;;;;;;4961397;28;20039;-77
2021/08/26 04:54:39;;;;;;;4.30;2.33;;;;;;;;;;4973522;28;20046;-78
2021/08/26 04:57:05;;;;;;;4.50;2.30;;;;;;;;;;4965769;28;20038;-78
2021/08/26 04:59:30;;;;;;;2.95;1.88;;;;;;;;;;4967324;28;20546;-78
2021/08/26 05:01:56;;;;;;;3.53;2.38;;;;;;;;;;4974059;28;20039;-77
2021/08/26 05:04:23;;;;;;;5.45;2.17;;;;;;;;;;4979615;28;20121;-78
2021/08/26 05:06:52;;;;;;;5.13;2.42;;;;;;;;;;4973121;28;20039;-78
2021/08/26 05:09:18;;;;;;;3.42;2.20;;;;;;;;;;4970526;28;20528;-78
2021/08/26 05:11:44;;;;;;;3.35;2.25;;;;;;;;;;4962095;28;20099;-78
2021/08/26 05:14:10;;;;;;;4.72;2.50;;;;;;;;;;4969626;28;20049;-78
2021/08/26 05:16:35;;;;;;;6.13;2.70;;;;;;;;;;4948279;28;20035;-77
2021/08/26 05:19:01;;;;;;;4.88;2.40;;;;;;;;;;4961534;28;20555;-78
2021/08/26 05:21:26;;;;;;;3.63;2.28;;;;;;;;;;4988273;28;20468;-78
2021/08/26 05:23:51;;;;;;;3.45;2.13;;;;;;;;;;4959385;28;20408;-78
2021/08/26 05:26:17;;;;;;;4.30;2.47;;;;;;;;;;4961848;28;20558;-78
2021/08/26 05:28:43;;;;;;;3.92;2.38;;;;;;;;;;4963755;28;20027;-78
2021/08/26 05:31:09;;;;;;;3.55;2.30;;;;;;;;;;4964492;28;20035;-78
2021/08/26 05:33:35;;;;;;;4.05;2.30;;;;;;;;;;4971850;28;20041;-78
2021/08/26 05:36:02;;;;;;;4.25;2.35;;;;;;;;;;4960620;28;20556;-78
2021/08/26 05:38:27;;;;;;;5.95;2.22;;;;;;;;;;4963740;28;20031;-78
2021/08/26 05:40:53;;;;;;;3.78;2.50;;;;;;;;;;4966895;28;20170;-78
2021/08/26 05:43:18;;;;;;;5.65;2.58;;;;;;;;;;4960099;28;20035;-78
2021/08/26 05:45:44;;;;;;;6.03;2.80;;;;;;;;;;4982789;28;20047;-78
2021/08/26 05:48:09;;;;;;;9.20;3.30;;;;;;;;;;4961555;28;20428;-78
2021/08/26 05:50:35;;;;;;;5.00;2.83;;;;;;;;;;4960533;28;20026;-77
2021/08/26 05:53:00;;;;;;;8.73;3.10;;;;;;;;;;4969856;28;20058;-77
2021/08/26 05:55:26;;;;;;;6.70;3.33;;;;;;;;;;4966342;28;20034;-78
2021/08/26 05:57:52;;;;;;;13.43;4.28;;;;;;;;;;4969460;28;20031;-77
2021/08/26 06:00:17;;;;;;;11.00;4.97;;;;;;;;;;4965055;28;20027;-78
2021/08/26 06:02:43;;;;;;;8.68;4.65;;;;;;;;;;4971493;28;20508;-78
2021/08/26 06:05:09;;;;;;;6.60;4.10;;;;;;;;;;4968149;28;20653;-78
2021/08/26 06:07:35;;;;;;;8.05;4.10;;;;;;;;;;4969011;28;20038;-78
2021/08/26 06:10:00;;;;;;;8.85;4.53;;;;;;;;;;4965802;28;20133;-78
2021/08/26 06:12:26;;;;;;;10.43;4.63;;;;;;;;;;4967187;28;20042;-78
2021/08/26 06:14:51;;;;;;;11.43;4.13;;;;;;;;;;4966526;28;20054;-78
2021/08/26 06:17:17;;;;;;;13.57;5.03;;;;;;;;;;4965160;28;20037;-78
2021/08/26 06:19:43;;;;;;;8.40;4.30;;;;;;;;;;4969705;28;20043;-77
2021/08/26 06:22:08;;;;;;;8.25;3.78;;;;;;;;;;4966477;28;20035;-77
2021/08/26 06:24:33;;;;;;;11.10;4.43;;;;;;;;;;4966926;28;20552;-77
2021/08/26 06:27:01;;;;;;;8.77;3.92;;;;;;;;;;4966014;28;20038;-77
2021/08/26 06:29:27;;;;;;;9.02;3.95;;;;;;;;;;4965675;28;20022;-78
2021/08/26 06:31:53;;;;;;;8.50;4.00;;;;;;;;;;4950914;28;20049;-77
2021/08/26 06:34:18;;;;;;;10.27;4.22;;;;;;;;;;4949329;28;20731;-78
2021/08/26 06:36:44;;;;;;;13.00;4.68;;;;;;;;;;4966352;28;20039;-77
2021/08/26 06:39:09;;;;;;;11.73;4.80;;;;;;;;;;4969744;28;20551;-77
2021/08/26 06:41:35;;;;;;;12.10;5.13;;;;;;;;;;4972846;28;20096;-77
2021/08/26 06:44:00;;;;;;;12.48;5.40;;;;;;;;;;4967512;28;20041;-77
2021/08/26 06:46:26;;;;;;;13.65;7.00;;;;;;;;;;4968081;28;20027;-77
2021/08/26 06:48:54;;;;;;;24.50;7.20;;;;;;;;;;4963613;28;20504;-78
2021/08/26 06:51:20;;;;;;;14.02;7.40;;;;;;;;;;4967561;28;20035;-77
2021/08/26 06:53:46;;;;;;;21.83;9.18;;;;;;;;;;4969026;28;20059;-78
2021/08/26 06:56:12;;;;;;;24.95;11.50;;;;;;;;;;4970299;28;20429;-78
2021/08/26 06:58:37;;;;;;;25.85;10.93;;;;;;;;;;4968022;28;20117;-78
2021/08/26 07:01:03;;;;;;;28.73;11.82;;;;;;;;;;4962709;28;20034;-78
2021/08/26 07:03:28;;;;;;;24.30;11.57;;;;;;;;;;4960152;28;20592;-78
2021/08/26 07:05:54;;;;;;;30.08;13.32;;;;;;;;;;4947543;28;20130;-77
2021/08/26 07:08:20;;;;;;;31.33;15.35;;;;;;;;;;4965561;28;20042;-78
2021/08/26 07:10:45;;;;;;;32.30;14.85;;;;;;;;;;4957681;28;20089;-77
2021/08/26 07:13:11;;;;;;;31.08;14.93;;;;;;;;;;4958268;28;20528;-77
2021/08/26 07:15:36;;;;;;;26.88;13.52;;;;;;;;;;4962706;28;20420;-77
2021/08/26 07:18:03;;;;;;;29.23;15.68;;;;;;;;;;4962788;28;20118;-77
2021/08/26 07:20:28;;;;;;;30.75;16.42;;;;;;;;;;4965558;28;20583;-77
2021/08/26 07:22:54;;;;;;;27.60;14.48;;;;;;;;;;4962279;28;20069;-77
2021/08/26 07:25:19;;;;;;;28.40;14.60;;;;;;;;;;4960474;28;20139;-77
2021/08/26 07:27:45;;;;;;;26.38;12.85;;;;;;;;;;4966918;28;20027;-77
2021/08/26 07:30:11;;;;;;;28.10;14.90;;;;;;;;;;4945264;28;20035;-77
2021/08/26 07:32:36;;;;;;;28.23;13.05;;;;;;;;;;4961882;28;20031;-77
2021/08/26 07:35:02;;;;;;;27.13;13.93;;;;;;;;;;4949893;28;20412;-77
2021/08/26 07:37:28;;;;;;;24.10;12.98;;;;;;;;;;4964039;28;20033;-77
2021/08/26 07:39:53;;;;;;;29.02;13.70;;;;;;;;;;4957961;28;20126;-77
2021/08/26 07:42:20;;;;;;;29.33;14.15;;;;;;;;;;4965960;28;20050;-77
2021/08/26 07:44:46;;;;;;;27.38;14.60;;;;;;;;;;4960596;28;20034;-78
2021/08/26 07:47:11;;;;;;;24.63;13.38;;;;;;;;;;4949725;28;20053;-78
2021/08/26 07:49:37;;;;;;;19.42;10.32;;;;;;;;;;4968029;28;20129;-78
2021/08/26 07:52:03;;;;;;;27.52;14.10;;;;;;;;;;4968676;28;20400;-78
2021/08/26 07:54:28;;;;;;;32.10;14.43;;;;;;;;;;4969940;28;20034;-78
2021/08/26 07:56:54;;;;;;;25.92;13.80;;;;;;;;;;4955879;28;20034;-78
2021/08/26 07:59:19;;;;;;;23.30;13.23;;;;;;;;;;4962884;28;20739;-78
2021/08/26 08:01:45;;;;;;;25.17;13.82;;;;;;;;;;4970293;28;20031;-78
2021/08/26 08:04:10;;;;;;;24.88;12.35;;;;;;;;;;4966775;28;20108;-78
2021/08/26 08:06:36;;;;;;;26.98;12.32;;;;;;;;;;4961821;28;20126;-77
2021/08/26 08:09:01;;;;;;;28.55;12.00;;;;;;;;;;4962822;28;20050;-77
2021/08/26 08:11:27;;;;;;;23.30;11.77;;;;;;;;;;4961816;28;20031;-78
2021/08/26 08:13:52;;;;;;;22.30;11.43;;;;;;;;;;4962905;28;20086;-78
2021/08/26 08:16:18;;;;;;;26.58;11.80;;;;;;;;;;4966750;28;20781;-78
2021/08/26 08:18:43;;;;;;;17.98;11.07;;;;;;;;;;4967061;28;20034;-78
2021/08/26 08:21:09;;;;;;;23.73;11.73;;;;;;;;;;4965130;28;20589;-77
2021/08/26 08:23:34;;;;;;;23.10;11.65;;;;;;;;;;4962861;28;20685;-79
2021/08/26 08:26:00;;;;;;;24.42;11.60;;;;;;;;;;4963762;28;20129;-80
2021/08/26 08:28:26;;;;;;;25.23;11.63;;;;;;;;;;4968570;28;20027;-79
2021/08/26 08:30:51;;;;;;;20.27;9.77;;;;;;;;;;4964189;28;20062;-78
2021/08/26 08:33:17;;;;;;;19.05;10.15;;;;;;;;;;4972102;28;20038;-78
2021/08/26 08:35:42;;;;;;;22.65;11.05;;;;;;;;;;4965131;28;20106;-78
2021/08/26 08:38:08;;;;;;;21.17;10.10;;;;;;;;;;4963466;28;20084;-78
2021/08/26 08:40:33;;;;;;;18.13;10.25;;;;;;;;;;4967737;28;20030;-78
2021/08/26 08:43:00;;;;;;;20.25;9.48;;;;;;;;;;4950117;28;20050;-78
2021/08/26 08:45:26;;;;;;;19.90;8.82;;;;;;;;;;4965319;28;20065;-78
2021/08/26 08:47:52;;;;;;;21.42;10.57;;;;;;;;;;4972866;28;20030;-79
2021/08/26 08:50:25;;;;;;;17.83;10.43;;;;;;;;;;4967202;28;20117;-80
2021/08/26 08:52:51;;;;;;;20.00;11.20;;;;;;;;;;4969615;28;20089;-78
2021/08/26 08:55:17;;;;;;;16.95;10.30;;;;;;;;;;4950886;28;20121;-78
2021/08/26 08:57:43;;;;;;;21.85;10.63;;;;;;;;;;4955267;28;20129;-78
2021/08/26 09:00:12;;;;;;;19.33;9.82;;;;;;;;;;4967413;28;20026;-78
2021/08/26 09:02:38;;;;;;;20.80;10.98;;;;;;;;;;4976756;28;20026;-79
2021/08/26 09:05:04;;;;;;;20.92;9.68;;;;;;;;;;4966377;28;20531;-78
2021/08/26 09:07:34;;;;;;;22.05;10.65;;;;;;;;;;4970631;28;20043;-78
2021/08/26 09:10:00;;;;;;;25.67;10.38;;;;;;;;;;4973936;28;20685;-78
2021/08/26 09:12:43;;;;;;;20.58;9.50;;;;;;;;;;4967790;28;20027;-79
2021/08/26 09:15:26;;;;;;;17.58;8.63;;;;;;;;;;4971287;28;20026;-78
2021/08/26 09:18:20;;;;;;;17.60;7.57;;;;;;;;;;4966159;28;20022;-78
2021/08/26 09:20:52;;;;;;;18.08;8.60;;;;;;;;;;4965126;28;20031;-78
2021/08/26 09:23:18;;;;;;;20.10;7.80;;;;;;;;;;4970830;28;20019;-79
2021/08/26 09:25:44;;;;;;;17.63;8.77;;;;;;;;;;4970624;28;20046;-78
2021/08/26 09:28:25;;;;;;;14.25;7.85;;;;;;;;;;4971857;28;20058;-79
2021/08/26 09:31:11;;;;;;;16.58;7.32;;;;;;;;;;4966608;28;20026;-80
2021/08/26 09:34:02;;;;;;;13.43;7.90;;;;;;;;;;4965952;28;20022;-78
2021/08/26 09:36:34;;;;;;;23.65;7.22;;;;;;;;;;4975930;28;20062;-78
2021/08/26 09:39:00;;;;;;;13.98;7.15;;;;;;;;;;4971726;28;20027;-78
2021/08/26 09:41:35;;;;;;;16.33;8.07;;;;;;;;;;4974262;28;20794;-79
2021/08/26 09:44:03;;;;;;;12.27;7.03;;;;;;;;;;4969488;28;20547;-79
2021/08/26 09:46:30;;;;;;;15.77;8.07;;;;;;;;;;4969310;28;20539;-79
2021/08/26 09:49:03;;;;;;;14.35;7.70;;;;;;;;;;4976282;28;20762;-79
2021/08/26 09:51:30;;;;;;;16.85;7.72;;;;;;;;;;4971485;28;20492;-79
2021/08/26 09:53:55;;;;;;;17.52;8.50;;;;;;;;;;4954047;28;20034;-78
2021/08/26 09:56:20;;;;;;;19.23;8.23;;;;;;;;;;4969658;28;20763;-80
2021/08/26 09:58:52;;;;;;;13.75;7.28;;;;;;;;;;4968224;28;20035;-79
2021/08/26 10:01:20;;;;;;;12.68;7.18;;;;;;;;;;4970625;28;20026;-79
2021/08/26 10:03:47;;;;;;;17.67;8.32;;;;;;;;;;4969427;28;20034;-77
2021/08/26 10:06:15;;;;;;;13.27;7.75;;;;;;;;;;4973436;28;20034;-79
2021/08/26 10:08:46;;;;;;;15.07;7.40;;;;;;;;;;4970070;28;20077;-79
2021/08/26 10:11:18;;;;;;;17.00;7.70;;;;;;;;;;4971370;28;20492;-79
2021/08/26 10:13:45;;;;;;;13.50;7.13;;;;;;;;;;4969074;28;20043;-80
2021/08/26 10:16:11;;;;;;;13.98;7.45;;;;;;;;;;4979843;28;20034;-79
2021/08/26 10:18:37;;;;;;;12.77;8.15;;;;;;;;;;4970053;28;20031;-78
2021/08/26 10:21:06;;;;;;;12.75;7.88;;;;;;;;;;4970787;28;20042;-79
2021/08/26 10:23:32;;;;;;;16.20;7.80;;;;;;;;;;4971139;28;20023;-80
2021/08/26 10:26:02;;;;;;;19.60;9.23;;;;;;;;;;4967569;28;20055;-79
2021/08/26 10:28:28;;;;;;;15.45;7.72;;;;;;;;;;4970988;28;20026;-80
2021/08/26 10:30:54;;;;;;;16.00;9.23;;;;;;;;;;4966409;28;20035;-78
2021/08/26 10:33:26;;;;;;;16.83;8.40;;;;;;;;;;4970827;28;20077;-78
2021/08/26 10:35:52;;;;;;;16.23;8.55;;;;;;;;;;4972665;28;20026;-78
2021/08/26 10:38:34;;;;;;;13.38;9.05;;;;;;;;;;4988747;28;20021;-86
2021/08/26 10:41:28;;;;;;;14.20;8.48;;;;;;;;;;4964484;28;20081;-81
2021/08/26 10:44:00;;;;;;;18.02;8.60;;;;;;;;;;4960184;28;20875;-78
2021/08/26 10:46:47;;;;;;;30.15;8.60;;;;;;;;;;4973066;28;20802;-79
2021/08/26 10:49:13;;;;;;;14.52;7.15;;;;;;;;;;4980169;28;20507;-79
2021/08/26 10:51:47;;;;;;;13.48;7.32;;;;;;;;;;4969206;28;20034;-84
2021/08/26 10:54:55;;;;;;;18.52;7.82;;;;;;;;;;4969672;28;20081;-80
2021/08/26 10:57:29;;;;;;;17.23;7.63;;;;;;;;;;4945725;28;20037;-81
2021/08/26 10:59:55;;;;;;;13.65;7.55;;;;;;;;;;4968003;28;20076;-79
2021/08/26 11:02:40;;;;;;;16.42;7.47;;;;;;;;;;4977306;28;20543;-83
2021/08/26 11:05:30;;;;;;;21.70;8.40;;;;;;;;;;4971578;28;20653;-80
2021/08/26 11:07:56;;;;;;;14.52;7.53;;;;;;;;;;4966679;28;20022;-81
2021/08/26 11:10:28;;;;;;;16.52;8.55;;;;;;;;;;4971965;28;20031;-81
2021/08/26 11:13:35;;;;;;;14.63;8.23;;;;;;;;;;4968215;28;20090;-79
2021/08/26 11:16:25;;;;;;;19.15;7.53;;;;;;;;;;4981636;28;20137;-80
2021/08/26 11:18:56;;;;;;;15.20;8.07;;;;;;;;;;4964989;28;20034;-81
2021/08/26 11:21:41;;;;;;;20.23;7.50;;;;;;;;;;4965185;28;20026;-80
2021/08/26 11:24:12;;;;;;;17.00;7.80;;;;;;;;;;4965769;28;20039;-80
2021/08/26 11:26:43;;;;;;;13.45;7.63;;;;;;;;;;4972019;28;20073;-82
2021/08/26 11:29:18;;;;;;;16.55;7.78;;;;;;;;;;4972035;28;20096;-80
2021/08/26 11:32:07;;;;;;;15.52;9.25;;;;;;;;;;4970426;28;20031;-79
2021/08/26 11:35:03;;;;;;;16.50;8.95;;;;;;;;;;4979319;28;20083;-80
2021/08/26 11:37:31;;;;;;;16.88;7.95;;;;;;;;;;4956014;28;20575;-80
2021/08/26 11:40:07;;;;;;;15.02;7.82;;;;;;;;;;4970943;28;20049;-83
2021/08/26 11:42:42;;;;;;;17.77;8.90;;;;;;;;;;4968478;28;20026;-79
2021/08/26 11:45:28;;;;;;;14.95;8.02;;;;;;;;;;4967500;28;20037;-80
2021/08/26 11:47:58;;;;;;;13.10;7.78;;;;;;;;;;4965255;28;20030;-81
2021/08/26 11:50:28;;;;;;;15.38;7.85;;;;;;;;;;4977177;28;20026;-86
2021/08/26 11:52:58;;;;;;;22.10;9.20;;;;;;;;;;4974977;28;20023;-81
2021/08/26 11:55:26;;;;;;;14.25;8.20;;;;;;;;;;4970474;28;20014;-84
2021/08/26 11:57:59;;;;;;;12.90;7.50;;;;;;;;;;4968537;28;20034;-79
2021/08/26 12:00:26;;;;;;;15.32;7.28;;;;;;;;;;4971155;28;20040;-82
2021/08/26 12:02:54;;;;;;;15.18;7.40;;;;;;;;;;4962822;28;20051;-82
2021/08/26 12:05:20;;;;;;;18.02;8.18;;;;;;;;;;4980225;28;20022;-81
2021/08/26 12:07:48;;;;;;;14.30;7.55;;;;;;;;;;4953496;28;20754;-80
2021/08/26 12:10:26;;;;;;;14.70;7.68;;;;;;;;;;4972927;28;20113;-81
2021/08/26 12:12:53;;;;;;;11.77;6.90;;;;;;;;;;4980611;28;20471;-81
2021/08/26 12:15:24;;;;;;;12.55;7.97;;;;;;;;;;4977148;28;20038;-83
2021/08/26 12:17:51;;;;;;;12.80;7.20;;;;;;;;;;4983007;28;20488;-79
2021/08/26 12:20:17;;;;;;;14.63;8.23;;;;;;;;;;4967418;28;20377;-81
2021/08/26 12:22:47;;;;;;;15.60;7.45;;;;;;;;;;4971042;28;20033;-87
2021/08/26 12:25:19;;;;;;;15.07;8.07;;;;;;;;;;4973437;28;20181;-83
2021/08/26 12:27:58;;;;;;;17.23;8.00;;;;;;;;;;4985921;28;20027;-83
2021/08/26 12:30:37;;;;;;;13.23;7.32;;;;;;;;;;4968046;28;20026;-82
2021/08/26 12:33:18;;;;;;;11.88;6.47;;;;;;;;;;4966080;28;20018;-81
2021/08/26 12:35:49;;;;;;;13.45;7.05;;;;;;;;;;4969449;28;20542;-81
2021/08/26 12:38:17;;;;;;;11.10;7.63;;;;;;;;;;4965708;28;20031;-88
2021/08/26 12:40:51;;;;;;;9.75;6.25;;;;;;;;;;4969345;28;20384;-82
2021/08/26 12:43:16;;;;;;;11.85;6.40;;;;;;;;;;4973896;28;20123;-82
2021/08/26 12:45:42;;;;;;;12.98;6.00;;;;;;;;;;4967903;28;20106;-83
2021/08/26 12:48:28;;;;;;;13.90;7.53;;;;;;;;;;4972972;28;20035;-81
2021/08/26 12:51:15;;;;;;;15.63;7.38;;;;;;;;;;4963487;28;20045;-81
2021/08/26 12:53:48;;;;;;;12.45;6.90;;;;;;;;;;4986692;28;20527;-81
2021/08/26 12:56:20;;;;;;;10.65;6.50;;;;;;;;;;4962353;28;20114;-89
2021/08/26 12:59:10;;;;;;;8.82;5.68;;;;;;;;;;4970258;28;20023;-83
2021/08/26 13:01:38;;;;;;;11.97;6.40;;;;;;;;;;4974439;28;20241;-83
2021/08/26 13:04:13;;;;;;;13.27;5.82;;;;;;;;;;4969805;28;20023;-80
2021/08/26 13:06:43;;;;;;;9.63;6.70;;;;;;;;;;4977392;28;20031;-85
2021/08/26 13:09:24;;;;;;;10.43;6.03;;;;;;;;;;4972782;28;20034;-79
2021/08/26 13:11:50;;;;;;;12.60;5.75;;;;;;;;;;4972609;28;20034;-79
2021/08/26 13:14:15;;;;;;;10.00;6.10;;;;;;;;;;4969287;28;20031;-82
2021/08/26 13:16:41;;;;;;;10.80;6.43;;;;;;;;;;4974229;28;20042;-83
2021/08/26 13:19:06;;;;;;;11.18;7.00;;;;;;;;;;4990054;28;20113;-83
2021/08/26 13:21:33;;;;;;;13.40;6.80;;;;;;;;;;4969470;28;20035;-83
2021/08/26 13:23:58;;;;;;;19.45;9.02;;;;;;;;;;4971563;28;20085;-83
2021/08/26 13:26:24;;;;;;;21.27;7.97;;;;;;;;;;4967917;28;20460;-83
2021/08/26 13:28:51;;;;;;;16.90;6.95;;;;;;;;;;4974378;28;20057;-86
2021/08/26 13:31:17;;;;;;;15.60;7.05;;;;;;;;;;4972371;28;20037;-81
2021/08/26 13:33:42;;;;;;;14.52;8.07;;;;;;;;;;4970270;28;20031;-82
2021/08/26 13:36:08;;;;;;;12.25;6.78;;;;;;;;;;4971476;28;20030;-81
2021/08/26 13:38:34;;;;;;;11.00;6.10;;;;;;;;;;4967651;28;20031;-80
2021/08/26 13:41:00;;;;;;;21.98;7.70;;;;;;;;;;4972174;28;20026;-82
2021/08/26 13:43:26;;;;;;;12.25;6.85;;;;;;;;;;4973623;28;20074;-83
2021/08/26 13:45:51;;;;;;;19.13;7.05;;;;;;;;;;4973463;28;20058;-82
2021/08/26 13:48:17;;;;;;;10.20;6.75;;;;;;;;;;4954084;28;20038;-81
2021/08/26 13:50:42;;;;;;;8.90;6.30;;;;;;;;;;4960131;28;20584;-81
2021/08/26 13:53:08;;;;;;;13.90;7.80;;;;;;;;;;4975848;28;20101;-86
2021/08/26 13:55:35;;;;;;;14.90;7.63;;;;;;;;;;4976516;28;20035;-82
2021/08/26 13:58:01;;;;;;;18.60;7.00;;;;;;;;;;4969658;28;20481;-82
2021/08/26 14:00:30;;;;;;;13.82;7.38;;;;;;;;;;4976925;28;20058;-82
2021/08/26 14:02:58;;;;;;;12.88;7.38;;;;;;;;;;4951303;28;20026;-84
2021/08/26 14:05:26;;;;;;;14.48;8.10;;;;;;;;;;4969747;28;20031;-82
2021/08/26 14:07:52;;;;;;;10.63;7.80;;;;;;;;;;4972435;28;20029;-83
2021/08/26 14:10:18;;;;;;;11.85;7.55;;;;;;;;;;4952480;28;20047;-82
2021/08/26 14:12:44;;;;;;;11.40;6.72;;;;;;;;;;4969530;28;20089;-81
2021/08/26 14:15:11;;;;;;;14.25;7.63;;;;;;;;;;4969815;28;20038;-82
2021/08/26 14:17:36;;;;;;;14.05;7.80;;;;;;;;;;4975705;28;20076;-83
2021/08/26 14:20:03;;;;;;;11.75;7.20;;;;;;;;;;4966896;28;20472;-82
2021/08/26 14:22:29;;;;;;;10.50;7.20;;;;;;;;;;4971913;28;20399;-83
2021/08/26 14:24:54;;;;;;;10.43;7.13;;;;;;;;;;4973993;28;20061;-81
2021/08/26 14:27:20;;;;;;;14.85;7.50;;;;;;;;;;4963421;28;20034;-82
2021/08/26 14:29:45;;;;;;;10.50;6.43;;;;;;;;;;4958537;28;20035;-82
2021/08/26 14:32:11;;;;;;;12.63;7.72;;;;;;;;;;4949684;28;20039;-84
2021/08/26 14:34:36;;;;;;;12.02;7.38;;;;;;;;;;4974161;28;20031;-87
2021/08/26 14:37:02;;;;;;;12.52;7.85;;;;;;;;;;4957939;28;20062;-83
2021/08/26 14:39:27;;;;;;;12.75;7.95;;;;;;;;;;4965077;28;20583;-83
2021/08/26 14:41:53;;;;;;;15.68;9.32;;;;;;;;;;4952029;28;20432;-83
2021/08/26 14:44:19;;;;;;;12.55;8.50;;;;;;;;;;4972331;28;20033;-83